Back to Top

Language: 

My Weather Underground Personal Weather Station Historical Data with Graphs...

Delerius Weather Station Historical Data
Daily Summary for August 12, 2017 Units:  English    Metric   Both
« Previous Day
Next Day »
Daily Weekly Monthly Yearly Custom
  High: Low: Average:
Temperature: 69.8 °F 54.5 °F 61.6 °F
Dew Point: 58.6 °F 49.5 °F 53.8 °F
Humidity: 92 % 56 % 77 %
Wind Speed: 15.0 mph 0.0 mph 8.7 mph
Wind Gust: 27.0 mph - -
Wind:- - WNW
Pressure: 30.07 in 29.84 in -
Precipitation: 0.00 in    
Historical Graphs
 
 
Tabular Data for August 12, 2017
Time Temperature Dew Point Pressure Wind Wind Speed Wind Gust Humidity Rainfall Rate (Hourly) solar Conditions
00:04 61.0 °F 58.0 °F 29.87 in West 3.0 mph 6.0 mph 90 % 0.00 in 0 W/m2
00:09 60.8 °F 58.2 °F 29.87 in West 4.0 mph 9.0 mph 91 % 0.00 in 0 W/m2
00:14 60.6 °F 58.0 °F 29.87 in West 5.0 mph 10.0 mph 91 % 0.00 in 0 W/m2
00:19 60.6 °F 58.0 °F 29.87 in West 5.0 mph 10.0 mph 91 % 0.00 in 0 W/m2
00:24 60.6 °F 58.0 °F 29.86 in West 5.0 mph 10.0 mph 91 % 0.00 in 0 W/m2
00:29 60.6 °F 58.3 °F 29.86 in West 4.0 mph 10.0 mph 92 % 0.00 in 0 W/m2
00:34 60.4 °F 58.1 °F 29.86 in West 5.0 mph 11.0 mph 92 % 0.00 in 0 W/m2
00:39 60.4 °F 58.1 °F 29.86 in WNW 6.0 mph 11.0 mph 92 % 0.00 in 0 W/m2
00:44 60.4 °F 58.1 °F 29.86 in West 5.0 mph 9.0 mph 92 % 0.00 in 0 W/m2
00:49 60.6 °F 58.3 °F 29.85 in WSW 4.0 mph 9.0 mph 92 % 0.00 in 0 W/m2
00:54 60.6 °F 58.3 °F 29.86 in West 6.0 mph 16.0 mph 92 % 0.00 in 0 W/m2
00:59 61.0 °F 58.6 °F 29.85 in West 9.0 mph 16.0 mph 92 % 0.00 in 0 W/m2
01:04 61.0 °F 58.6 °F 29.85 in West 9.0 mph 15.0 mph 92 % 0.00 in 0 W/m2
01:09 61.0 °F 58.6 °F 29.85 in West 10.0 mph 15.0 mph 92 % 0.00 in 0 W/m2
01:14 61.0 °F 58.3 °F 29.85 in West 9.0 mph 18.0 mph 91 % 0.00 in 0 W/m2
01:19 61.0 °F 58.3 °F 29.85 in West 9.0 mph 18.0 mph 91 % 0.00 in 0 W/m2
01:24 61.0 °F 58.3 °F 29.85 in West 9.0 mph 16.0 mph 91 % 0.00 in 0 W/m2
01:29 61.0 °F 58.3 °F 29.85 in West 9.0 mph 16.0 mph 91 % 0.00 in 0 W/m2
01:34 60.8 °F 58.2 °F 29.85 in West 9.0 mph 16.0 mph 91 % 0.00 in 0 W/m2
01:39 60.8 °F 57.8 °F 29.85 in West 8.0 mph 18.0 mph 90 % 0.00 in 0 W/m2
01:44 60.8 °F 57.8 °F 29.85 in West 9.0 mph 19.0 mph 90 % 0.00 in 0 W/m2
01:49 60.6 °F 57.7 °F 29.85 in West 10.0 mph 19.0 mph 90 % 0.00 in 0 W/m2
01:54 60.6 °F 57.7 °F 29.85 in West 9.0 mph 15.0 mph 90 % 0.00 in 0 W/m2
01:59 60.8 °F 57.8 °F 29.85 in West 9.0 mph 15.0 mph 90 % 0.00 in 0 W/m2
02:04 60.8 °F 57.8 °F 29.85 in West 10.0 mph 16.0 mph 90 % 0.00 in 0 W/m2
02:09 60.8 °F 57.8 °F 29.85 in West 11.0 mph 16.0 mph 90 % 0.00 in 0 W/m2
02:14 60.8 °F 57.5 °F 29.85 in West 11.0 mph 18.0 mph 89 % 0.00 in 0 W/m2
02:19 60.8 °F 57.5 °F 29.85 in West 10.0 mph 18.0 mph 89 % 0.00 in 0 W/m2
02:24 60.8 °F 57.5 °F 29.85 in West 10.0 mph 18.0 mph 89 % 0.00 in 0 W/m2
02:29 60.6 °F 57.0 °F 29.85 in West 10.0 mph 18.0 mph 88 % 0.00 in 0 W/m2
02:34 60.4 °F 56.9 °F 29.85 in West 9.0 mph 15.0 mph 88 % 0.00 in 0 W/m2
02:39 60.4 °F 56.9 °F 29.85 in West 9.0 mph 15.0 mph 88 % 0.00 in 0 W/m2
02:44 60.3 °F 56.7 °F 29.85 in West 9.0 mph 15.0 mph 88 % 0.00 in 0 W/m2
02:49 60.3 °F 56.7 °F 29.85 in West 10.0 mph 20.0 mph 88 % 0.00 in 0 W/m2
02:54 60.3 °F 56.7 °F 29.85 in West 10.0 mph 20.0 mph 88 % 0.00 in 0 W/m2
02:59 60.1 °F 56.5 °F 29.85 in West 9.0 mph 16.0 mph 88 % 0.00 in 0 W/m2
03:04 59.9 °F 56.3 °F 29.85 in West 9.0 mph 16.0 mph 88 % 0.00 in 0 W/m2
03:09 59.7 °F 56.2 °F 29.85 in West 8.0 mph 16.0 mph 88 % 0.00 in 0 W/m2
03:14 59.7 °F 56.2 °F 29.85 in West 8.0 mph 13.0 mph 88 % 0.00 in 0 W/m2
03:19 59.5 °F 56.3 °F 29.85 in West 8.0 mph 14.0 mph 89 % 0.00 in 0 W/m2
03:24 59.4 °F 55.8 °F 29.85 in West 8.0 mph 14.0 mph 88 % 0.00 in 0 W/m2
03:29 59.4 °F 55.8 °F 29.85 in West 9.0 mph 15.0 mph 88 % 0.00 in 0 W/m2
03:34 59.2 °F 55.6 °F 29.85 in WNW 9.0 mph 15.0 mph 88 % 0.00 in 0 W/m2
03:39 59.2 °F 55.6 °F 29.85 in West 9.0 mph 14.0 mph 88 % 0.00 in 0 W/m2
03:44 59.2 °F 55.9 °F 29.85 in West 9.0 mph 16.0 mph 89 % 0.00 in 0 W/m2
03:49 59.4 °F 56.1 °F 29.84 in West 9.0 mph 16.0 mph 89 % 0.00 in 0 W/m2
03:54 59.4 °F 56.1 °F 29.85 in West 9.0 mph 14.0 mph 89 % 0.00 in 0 W/m2
03:59 59.4 °F 56.1 °F 29.85 in West 8.0 mph 14.0 mph 89 % 0.00 in 0 W/m2
04:04 59.4 °F 56.1 °F 29.84 in West 8.0 mph 14.0 mph 89 % 0.00 in 0 W/m2
04:10 59.2 °F 55.9 °F 29.84 in West 8.0 mph 13.0 mph 89 % 0.00 in 0 W/m2
04:15 59.2 °F 55.9 °F 29.85 in West 7.0 mph 12.0 mph 89 % 0.00 in 0 W/m2
04:20 59.0 °F 55.8 °F 29.85 in WNW 8.0 mph 12.0 mph 89 % 0.00 in 0 W/m2
04:25 58.8 °F 55.6 °F 29.85 in WNW 8.0 mph 12.0 mph 89 % 0.00 in 0 W/m2
04:30 58.6 °F 55.7 °F 29.85 in WNW 7.0 mph 11.0 mph 90 % 0.00 in 0 W/m2
04:35 58.5 °F 55.5 °F 29.85 in WNW 6.0 mph 11.0 mph 90 % 0.00 in 0 W/m2
04:40 58.3 °F 55.4 °F 29.85 in WNW 6.0 mph 11.0 mph 90 % 0.00 in 0 W/m2
04:45 58.1 °F 54.9 °F 29.85 in WNW 6.0 mph 12.0 mph 89 % 0.00 in 0 W/m2
04:50 57.7 °F 54.2 °F 29.85 in WNW 6.0 mph 12.0 mph 88 % 0.00 in 0 W/m2
04:55 57.6 °F 54.0 °F 29.85 in WNW 6.0 mph 10.0 mph 88 % 0.00 in 0 W/m2
05:00 57.4 °F 53.5 °F 29.85 in WNW 6.0 mph 10.0 mph 87 % 0.00 in 0 W/m2
05:05 57.4 °F 53.5 °F 29.85 in WNW 5.0 mph 10.0 mph 87 % 0.00 in 0 W/m2
05:10 57.0 °F 53.2 °F 29.85 in NW 3.0 mph 9.0 mph 87 % 0.00 in 0 W/m2
05:15 57.0 °F 53.2 °F 29.85 in NW 1.0 mph 6.0 mph 87 % 0.00 in 0 W/m2
05:20 56.8 °F 53.3 °F 29.85 in WSW 2.0 mph 8.0 mph 88 % 0.00 in 0 W/m2
05:25 56.8 °F 53.3 °F 29.85 in WSW 3.0 mph 8.0 mph 88 % 0.00 in 0 W/m2
05:30 56.7 °F 53.1 °F 29.86 in West 1.0 mph 6.0 mph 88 % 0.00 in 0 W/m2
05:35 56.5 °F 53.0 °F 29.86 in West 2.0 mph 6.0 mph 88 % 0.00 in 0 W/m2
05:40 56.1 °F 52.6 °F 29.86 in West 2.0 mph 6.0 mph 88 % 0.00 in 5 W/m2
05:45 55.9 °F 52.4 °F 29.86 in WNW 1.0 mph 4.0 mph 88 % 0.00 in 7 W/m2
05:50 55.8 °F 52.3 °F 29.86 in Calm   4.0 mph 88 % 0.00 in 9 W/m2
05:55 55.6 °F 52.4 °F 29.86 in West 2.0 mph 8.0 mph 89 % 0.00 in 11 W/m2
06:00 55.4 °F 52.2 °F 29.86 in West 3.0 mph 8.0 mph 89 % 0.00 in 12 W/m2
06:05 55.2 °F 52.0 °F 29.86 in WNW 2.0 mph 6.0 mph 89 % 0.00 in 14 W/m2
06:10 55.2 °F 52.0 °F 29.86 in WNW 1.0 mph 8.0 mph 89 % 0.00 in 14 W/m2
06:15 55.2 °F 52.0 °F 29.86 in WNW 1.0 mph 8.0 mph 89 % 0.00 in 18 W/m2
06:20 55.0 °F 51.9 °F 29.87 in Calm   1.0 mph 89 % 0.00 in 26 W/m2
06:25 55.0 °F 51.9 °F 29.87 in Calm     89 % 0.00 in 23 W/m2
06:30 54.9 °F 51.7 °F 29.87 in Calm     89 % 0.00 in 21 W/m2
06:31 54.9 °F 51.7 °F 29.87 in Calm     89 % 0.00 in 33 W/m2
06:36 55.0 °F 52.2 °F 29.87 in Calm     90 % 0.00 in 83 W/m2
06:41 55.2 °F 52.3 °F 29.87 in WSW 1.0 mph 9.0 mph 90 % 0.00 in 95 W/m2
06:46 55.8 °F 52.9 °F 29.87 in West 3.0 mph 11.0 mph 90 % 0.00 in 107 W/m2
06:51 56.1 °F 52.9 °F 29.87 in West 6.0 mph 12.0 mph 89 % 0.00 in 97 W/m2
06:56 56.7 °F 53.1 °F 29.87 in WNW 7.0 mph 13.0 mph 88 % 0.00 in 105 W/m2
07:01 56.7 °F 52.8 °F 29.87 in West 8.0 mph 13.0 mph 87 % 0.00 in 39 W/m2
07:06 56.8 °F 52.7 °F 29.87 in West 7.0 mph 12.0 mph 86 % 0.00 in 70 W/m2
07:11 57.0 °F 52.9 °F 29.87 in West 5.0 mph 10.0 mph 86 % 0.00 in 81 W/m2
07:16 57.0 °F 52.9 °F 29.88 in West 5.0 mph 10.0 mph 86 % 0.00 in 202 W/m2
07:21 57.4 °F 53.2 °F 29.88 in West 6.0 mph 10.0 mph 86 % 0.00 in 190 W/m2
07:26 57.7 °F 53.6 °F 29.88 in West 6.0 mph 10.0 mph 86 % 0.00 in 104 W/m2
07:31 57.9 °F 53.8 °F 29.88 in West 5.0 mph 11.0 mph 86 % 0.00 in 70 W/m2
07:36 57.9 °F 53.8 °F 29.88 in West 4.0 mph 11.0 mph 86 % 0.00 in 60 W/m2
07:41 57.9 °F 53.8 °F 29.88 in West 4.0 mph 8.0 mph 86 % 0.00 in 65 W/m2
07:46 57.9 °F 53.8 °F 29.88 in West 4.0 mph 8.0 mph 86 % 0.00 in 79 W/m2
07:51 57.9 °F 53.8 °F 29.89 in West 2.0 mph 7.0 mph 86 % 0.00 in 95 W/m2
07:56 57.9 °F 54.1 °F 29.89 in Calm   4.0 mph 87 % 0.00 in 90 W/m2
08:01 57.9 °F 53.8 °F 29.89 in West 2.0 mph 12.0 mph 86 % 0.00 in 84 W/m2
08:06 58.1 °F 53.9 °F 29.89 in West 4.0 mph 12.0 mph 86 % 0.00 in 188 W/m2
08:11 58.3 °F 54.1 °F 29.89 in West 3.0 mph 8.0 mph 86 % 0.00 in 93 W/m2
08:16 58.5 °F 54.0 °F 29.89 in West 4.0 mph 15.0 mph 85 % 0.00 in 160 W/m2
08:26 58.8 °F 53.7 °F 29.89 in West 9.0 mph 18.0 mph 83 % 0.00 in 79 W/m2
08:31 59.0 °F 53.8 °F 29.89 in WNW 10.0 mph 18.0 mph 83 % 0.00 in 56 W/m2
08:36 59.0 °F 53.8 °F 29.89 in WNW 10.0 mph 15.0 mph 83 % 0.00 in 130 W/m2
08:41 59.4 °F 54.5 °F 29.89 in West 9.0 mph 19.0 mph 84 % 0.00 in 355 W/m2
08:46 59.7 °F 54.5 °F 29.89 in West 9.0 mph 19.0 mph 83 % 0.00 in 160 W/m2
08:51 59.9 °F 54.1 °F 29.89 in West 11.0 mph 20.0 mph 81 % 0.00 in 102 W/m2
08:56 59.5 °F 53.7 °F 29.89 in West 12.0 mph 20.0 mph 81 % 0.00 in 91 W/m2
09:01 59.4 °F 53.9 °F 29.89 in WSW 11.0 mph 20.0 mph 82 % 0.00 in 77 W/m2
09:06 59.2 °F 53.7 °F 29.90 in WSW 10.0 mph 16.0 mph 82 % 0.00 in 98 W/m2
09:11 59.0 °F 53.5 °F 29.90 in West 9.0 mph 16.0 mph 82 % 0.00 in 121 W/m2
09:16 59.2 °F 53.7 °F 29.90 in West 9.0 mph 16.0 mph 82 % 0.00 in 70 W/m2
09:21 59.5 °F 54.0 °F 29.90 in West 9.0 mph 16.0 mph 82 % 0.00 in 178 W/m2
09:26 60.1 °F 54.2 °F 29.91 in West 8.0 mph 15.0 mph 81 % 0.00 in 160 W/m2
09:31 60.3 °F 53.7 °F 29.90 in West 8.0 mph 16.0 mph 79 % 0.00 in 134 W/m2
09:36 60.4 °F 53.9 °F 29.91 in West 9.0 mph 16.0 mph 79 % 0.00 in 125 W/m2
09:41 60.4 °F 53.5 °F 29.91 in WNW 7.0 mph 14.0 mph 78 % 0.00 in 86 W/m2
09:46 60.4 °F 53.5 °F 29.91 in WNW 7.0 mph 14.0 mph 78 % 0.00 in 86 W/m2
09:51 60.4 °F 53.5 °F 29.91 in WNW 9.0 mph 16.0 mph 78 % 0.00 in 132 W/m2
09:56 60.3 °F 53.7 °F 29.91 in West 11.0 mph 19.0 mph 79 % 0.00 in 165 W/m2
10:01 60.1 °F 53.9 °F 29.91 in West 11.0 mph 19.0 mph 80 % 0.00 in 144 W/m2
10:06 59.9 °F 53.7 °F 29.91 in West 11.0 mph 19.0 mph 80 % 0.00 in 239 W/m2
10:11 59.9 °F 54.1 °F 29.91 in West 11.0 mph 19.0 mph 81 % 0.00 in 234 W/m2
10:16 59.9 °F 54.1 °F 29.91 in West 10.0 mph 16.0 mph 81 % 0.00 in 146 W/m2
10:21 59.9 °F 54.1 °F 29.91 in West 8.0 mph 15.0 mph 81 % 0.00 in 230 W/m2
10:26 60.3 °F 54.4 °F 29.91 in West 8.0 mph 15.0 mph 81 % 0.00 in 297 W/m2
10:31 60.6 °F 54.4 °F 29.91 in West 9.0 mph 14.0 mph 80 % 0.00 in 316 W/m2
10:37 61.5 °F 54.9 °F 29.91 in West 9.0 mph 15.0 mph 79 % 0.00 in 406 W/m2
10:42 62.1 °F 54.8 °F 29.91 in West 9.0 mph 16.0 mph 77 % 0.00 in 332 W/m2
10:47 62.4 °F 54.8 °F 29.91 in West 10.0 mph 16.0 mph 76 % 0.00 in 346 W/m2
10:52 62.6 °F 54.2 °F 29.91 in West 11.0 mph 19.0 mph 74 % 0.00 in 360 W/m2
10:57 62.8 °F 54.4 °F 29.91 in West 12.0 mph 20.0 mph 74 % 0.00 in 497 W/m2
11:02 63.1 °F 54.7 °F 29.91 in West 12.0 mph 20.0 mph 74 % 0.00 in 401 W/m2
11:07 63.3 °F 54.9 °F 29.91 in West 11.0 mph 20.0 mph 74 % 0.00 in 374 W/m2
11:12 63.7 °F 55.2 °F 29.91 in WNW 11.0 mph 20.0 mph 74 % 0.00 in 376 W/m2
11:17 63.9 °F 54.7 °F 29.91 in WNW 11.0 mph 20.0 mph 72 % 0.00 in 306 W/m2
11:22 64.0 °F 54.8 °F 29.92 in WNW 11.0 mph 20.0 mph 72 % 0.00 in 230 W/m2
11:27 63.9 °F 55.0 °F 29.92 in West 11.0 mph 19.0 mph 73 % 0.00 in 350 W/m2
11:32 63.3 °F 54.5 °F 29.92 in West 12.0 mph 21.0 mph 73 % 0.00 in 468 W/m2
11:37 63.7 °F 55.2 °F 29.92 in West 13.0 mph 21.0 mph 74 % 0.00 in 1120 W/m2
11:42 64.2 °F 55.8 °F 29.92 in West 11.0 mph 20.0 mph 74 % 0.00 in 499 W/m2
11:47 64.6 °F 55.7 °F 29.92 in West 9.0 mph 15.0 mph 73 % 0.00 in 306 W/m2
11:52 64.9 °F 55.7 °F 29.92 in West 10.0 mph 19.0 mph 72 % 0.00 in 1053 W/m2
11:57 65.5 °F 55.8 °F 29.92 in WNW 11.0 mph 19.0 mph 71 % 0.00 in 652 W/m2
11:58 65.7 °F 56.0 °F 29.92 in WNW 11.0 mph 19.0 mph 71 % 0.00 in 439 W/m2
12:03 65.5 °F 55.4 °F 29.92 in West 12.0 mph 21.0 mph 70 % 0.00 in 819 W/m2
12:08 65.7 °F 55.2 °F 29.92 in West 14.0 mph 24.0 mph 69 % 0.00 in 830 W/m2
12:13 65.5 °F 55.0 °F 29.92 in West 15.0 mph 26.0 mph 69 % 0.00 in 274 W/m2
12:18 65.7 °F 55.2 °F 29.92 in West 14.0 mph 26.0 mph 69 % 0.00 in 1197 W/m2
12:23 66.4 °F 56.7 °F 29.92 in West 12.0 mph 21.0 mph 71 % 0.00 in 422 W/m2
12:28 66.7 °F 55.8 °F 29.92 in West 10.0 mph 20.0 mph 68 % 0.00 in 364 W/m2
12:33 66.7 °F 55.4 °F 29.92 in WNW 11.0 mph 22.0 mph 67 % 0.00 in 457 W/m2
12:38 66.6 °F 56.1 °F 29.92 in West 12.0 mph 22.0 mph 69 % 0.00 in 582 W/m2
12:43 66.7 °F 56.2 °F 29.92 in West 11.0 mph 18.0 mph 69 % 0.00 in 782 W/m2
12:48 66.9 °F 56.0 °F 29.92 in West 12.0 mph 18.0 mph 68 % 0.00 in 1136 W/m2
12:53 67.5 °F 56.1 °F 29.92 in West 12.0 mph 22.0 mph 67 % 0.00 in 325 W/m2
12:58 67.3 °F 55.9 °F 29.92 in West 13.0 mph 23.0 mph 67 % 0.00 in 255 W/m2
13:03 66.7 °F 56.6 °F 29.93 in West 13.0 mph 23.0 mph 70 % 0.00 in 483 W/m2
13:08 66.2 °F 55.7 °F 29.93 in West 13.0 mph 23.0 mph 69 % 0.00 in 225 W/m2
13:13 66.2 °F 56.5 °F 29.93 in West 12.0 mph 23.0 mph 71 % 0.00 in 1143 W/m2
13:18 66.6 °F 55.7 °F 29.93 in WSW 13.0 mph 24.0 mph 68 % 0.00 in 327 W/m2
13:23 66.4 °F 55.5 °F 29.93 in West 13.0 mph 24.0 mph 68 % 0.00 in 246 W/m2
13:28 66.2 °F 55.7 °F 29.93 in WNW 12.0 mph 22.0 mph 69 % 0.00 in 239 W/m2
13:33 65.8 °F 55.4 °F 29.93 in WNW 13.0 mph 23.0 mph 69 % 0.00 in 269 W/m2
13:38 65.5 °F 55.4 °F 29.93 in WNW 14.0 mph 24.0 mph 70 % 0.00 in 353 W/m2
13:43 65.3 °F 55.7 °F 29.93 in West 14.0 mph 24.0 mph 71 % 0.00 in 821 W/m2
13:48 65.8 °F 55.8 °F 29.93 in West 15.0 mph 25.0 mph 70 % 0.00 in 932 W/m2
13:53 66.6 °F 56.5 °F 29.93 in West 14.0 mph 25.0 mph 70 % 0.00 in 940 W/m2
13:58 66.9 °F 56.0 °F 29.93 in West 13.0 mph 21.0 mph 68 % 0.00 in 264 W/m2
14:04 66.7 °F 55.4 °F 29.93 in West 13.0 mph 22.0 mph 67 % 0.00 in 274 W/m2
14:08 66.6 °F 55.7 °F 29.93 in WNW 14.0 mph 22.0 mph 68 % 0.00 in 373 W/m2
14:10 66.6 °F 55.7 °F 29.93 in West 14.0 mph 23.0 mph 68 % 0.00 in 348 W/m2
14:15 66.6 °F 56.1 °F 29.93 in West 14.0 mph 25.0 mph 69 % 0.00 in 471 W/m2
14:20 67.1 °F 56.2 °F 29.93 in West 14.0 mph 25.0 mph 68 % 0.00 in 373 W/m2
14:25 67.3 °F 55.5 °F 29.93 in WNW 14.0 mph 23.0 mph 66 % 0.00 in 367 W/m2
14:30 67.3 °F 55.5 °F 29.93 in WNW 13.0 mph 23.0 mph 66 % 0.00 in 295 W/m2
14:35 67.1 °F 55.4 °F 29.93 in WNW 12.0 mph 23.0 mph 66 % 0.00 in 299 W/m2
14:40 67.3 °F 55.1 °F 29.94 in WNW 13.0 mph 24.0 mph 65 % 0.00 in 392 W/m2
14:45 67.6 °F 55.5 °F 29.93 in West 13.0 mph 24.0 mph 65 % 0.00 in 167 W/m2
14:51 67.5 °F 55.7 °F 29.94 in WNW 12.0 mph 22.0 mph 66 % 0.00 in 107 W/m2
14:56 66.6 °F 55.7 °F 29.94 in WNW 12.0 mph 23.0 mph 68 % 0.00 in 237 W/m2
15:01 66.2 °F 56.1 °F 29.94 in WNW 10.0 mph 23.0 mph 70 % 0.00 in 283 W/m2
15:06 66.2 °F 55.7 °F 29.94 in WNW 8.0 mph 13.0 mph 69 % 0.00 in 403 W/m2
15:11 66.4 °F 55.1 °F 29.94 in WNW 10.0 mph 22.0 mph 67 % 0.00 in 411 W/m2
15:16 66.6 °F 55.7 °F 29.94 in West 12.0 mph 22.0 mph 68 % 0.00 in 967 W/m2
15:21 67.3 °F 55.9 °F 29.94 in West 11.0 mph 19.0 mph 67 % 0.00 in 967 W/m2
15:26 67.5 °F 56.1 °F 29.94 in West 12.0 mph 22.0 mph 67 % 0.00 in 415 W/m2
15:31 67.8 °F 56.0 °F 29.94 in WNW 13.0 mph 22.0 mph 66 % 0.00 in 475 W/m2
15:36 68.0 °F 55.8 °F 29.94 in WNW 13.0 mph 21.0 mph 65 % 0.00 in 278 W/m2
15:41 67.8 °F 56.0 °F 29.94 in WNW 13.0 mph 21.0 mph 66 % 0.00 in 162 W/m2
15:46 67.3 °F 55.5 °F 29.95 in WNW 12.0 mph 21.0 mph 66 % 0.00 in 128 W/m2
15:51 66.6 °F 55.7 °F 29.95 in WNW 11.0 mph 21.0 mph 68 % 0.00 in 181 W/m2
15:56 66.2 °F 55.7 °F 29.95 in NW 10.0 mph 21.0 mph 69 % 0.00 in 272 W/m2
16:01 66.6 °F 55.7 °F 29.95 in NW 9.0 mph 19.0 mph 68 % 0.00 in 853 W/m2
16:06 67.3 °F 55.5 °F 29.95 in WNW 10.0 mph 19.0 mph 66 % 0.00 in 865 W/m2
16:11 68.0 °F 54.9 °F 29.95 in WNW 11.0 mph 22.0 mph 63 % 0.00 in 302 W/m2
16:16 68.2 °F 53.8 °F 29.95 in WNW 13.0 mph 25.0 mph 60 % 0.00 in 302 W/m2
16:21 68.4 °F 53.9 °F 29.95 in WNW 13.0 mph 25.0 mph 60 % 0.00 in 668 W/m2
16:26 68.5 °F 54.6 °F 29.95 in WNW 13.0 mph 27.0 mph 61 % 0.00 in 642 W/m2
16:31 68.5 °F 54.6 °F 29.95 in WNW 14.0 mph 27.0 mph 61 % 0.00 in 348 W/m2
16:36 68.4 °F 54.4 °F 29.95 in WNW 13.0 mph 22.0 mph 61 % 0.00 in 561 W/m2
16:41 68.4 °F 54.8 °F 29.95 in WNW 12.0 mph 21.0 mph 62 % 0.00 in 691 W/m2
16:46 69.1 °F 55.1 °F 29.95 in WNW 10.0 mph 19.0 mph 61 % 0.00 in 621 W/m2
16:51 69.4 °F 53.5 °F 29.96 in WNW 11.0 mph 23.0 mph 57 % 0.00 in 624 W/m2
16:56 69.6 °F 53.7 °F 29.96 in WNW 12.0 mph 23.0 mph 57 % 0.00 in 621 W/m2
17:01 69.8 °F 53.9 °F 29.96 in WNW 11.0 mph 23.0 mph 57 % 0.00 in 613 W/m2
17:06 69.6 °F 53.7 °F 29.96 in WNW 11.0 mph 23.0 mph 57 % 0.00 in 608 W/m2
17:11 69.8 °F 53.9 °F 29.96 in WNW 12.0 mph 21.0 mph 57 % 0.00 in 570 W/m2
17:16 69.4 °F 53.5 °F 29.96 in WNW 12.0 mph 23.0 mph 57 % 0.00 in 570 W/m2
17:21 69.3 °F 53.4 °F 29.97 in WNW 13.0 mph 23.0 mph 57 % 0.00 in 548 W/m2
17:26 69.1 °F 53.7 °F 29.97 in WNW 13.0 mph 21.0 mph 58 % 0.00 in 534 W/m2
17:31 69.1 °F 53.7 °F 29.97 in West 12.0 mph 21.0 mph 58 % 0.00 in 547 W/m2
17:36 69.1 °F 53.7 °F 29.97 in West 11.0 mph 21.0 mph 58 % 0.00 in 485 W/m2
17:41 68.9 °F 52.6 °F 29.97 in WNW 11.0 mph 20.0 mph 56 % 0.00 in 436 W/m2
17:46 68.9 °F 53.0 °F 29.98 in WNW 11.0 mph 20.0 mph 57 % 0.00 in 436 W/m2
17:51 68.9 °F 53.0 °F 29.98 in WNW 10.0 mph 19.0 mph 57 % 0.00 in 432 W/m2
17:56 69.1 °F 53.2 °F 29.98 in WNW 9.0 mph 18.0 mph 57 % 0.00 in 429 W/m2
18:01 68.9 °F 52.6 °F 29.98 in WNW 10.0 mph 20.0 mph 56 % 0.00 in 357 W/m2
18:02 68.7 °F 52.4 °F 29.98 in WNW 10.0 mph 20.0 mph 56 % 0.00 in 357 W/m2
18:07 68.5 °F 52.2 °F 29.98 in West 11.0 mph 20.0 mph 56 % 0.00 in 329 W/m2
18:12 68.4 °F 52.0 °F 29.98 in WNW 10.0 mph 19.0 mph 56 % 0.00 in 313 W/m2
18:17 68.0 °F 52.2 °F 29.98 in WNW 10.0 mph 23.0 mph 57 % 0.00 in 290 W/m2
18:22 67.5 °F 51.7 °F 29.98 in West 11.0 mph 23.0 mph 57 % 0.00 in 283 W/m2
18:27 67.1 °F 51.8 °F 29.98 in West 12.0 mph 22.0 mph 58 % 0.00 in 269 W/m2
18:32 66.9 °F 52.1 °F 29.98 in WNW 11.0 mph 22.0 mph 59 % 0.00 in 255 W/m2
18:37 66.9 °F 51.7 °F 29.99 in WNW 10.0 mph 19.0 mph 58 % 0.00 in 241 W/m2
18:42 66.7 °F 52.0 °F 29.99 in WNW 11.0 mph 20.0 mph 59 % 0.00 in 225 W/m2
18:47 66.4 °F 51.6 °F 29.99 in WNW 12.0 mph 21.0 mph 59 % 0.00 in 214 W/m2
18:52 66.0 °F 50.8 °F 29.99 in WNW 13.0 mph 21.0 mph 58 % 0.00 in 204 W/m2
18:57 65.7 °F 50.5 °F 29.99 in WNW 14.0 mph 24.0 mph 58 % 0.00 in 199 W/m2
19:02 65.5 °F 50.3 °F 30.00 in WNW 12.0 mph 24.0 mph 58 % 0.00 in 178 W/m2
19:07 65.1 °F 50.0 °F 30.00 in WNW 12.0 mph 24.0 mph 58 % 0.00 in 158 W/m2
19:12 64.9 °F 50.3 °F 30.00 in WNW 13.0 mph 24.0 mph 59 % 0.00 in 146 W/m2
19:17 64.6 °F 49.9 °F 30.00 in WNW 13.0 mph 23.0 mph 59 % 0.00 in 135 W/m2
19:22 64.2 °F 50.0 °F 30.00 in WNW 13.0 mph 25.0 mph 60 % 0.00 in 123 W/m2
19:27 64.0 °F 50.3 °F 30.00 in WNW 13.0 mph 25.0 mph 61 % 0.00 in 111 W/m2
19:32 63.9 °F 50.1 °F 30.00 in WNW 11.0 mph 20.0 mph 61 % 0.00 in 97 W/m2
19:37 63.5 °F 50.2 °F 30.01 in WNW 10.0 mph 19.0 mph 62 % 0.00 in 86 W/m2
19:42 63.3 °F 50.5 °F 30.01 in WNW 9.0 mph 19.0 mph 63 % 0.00 in 76 W/m2
19:47 63.0 °F 50.2 °F 30.01 in WNW 9.0 mph 18.0 mph 63 % 0.00 in 53 W/m2
19:52 62.8 °F 50.4 °F 30.02 in WNW 10.0 mph 18.0 mph 64 % 0.00 in 30 W/m2
19:57 62.2 °F 50.7 °F 30.02 in NW 9.0 mph 18.0 mph 66 % 0.00 in 39 W/m2
20:02 61.9 °F 50.4 °F 30.02 in NW 9.0 mph 18.0 mph 66 % 0.00 in 33 W/m2
20:07 61.3 °F 50.3 °F 30.02 in NW 9.0 mph 18.0 mph 67 % 0.00 in 25 W/m2
20:12 61.2 °F 50.5 °F 30.02 in WNW 9.0 mph 18.0 mph 68 % 0.00 in 16 W/m2
20:17 60.6 °F 50.0 °F 30.02 in WNW 10.0 mph 18.0 mph 68 % 0.00 in 14 W/m2
20:22 60.4 °F 50.2 °F 30.03 in WNW 10.0 mph 18.0 mph 69 % 0.00 in 11 W/m2
20:27 60.3 °F 50.0 °F 30.03 in WNW 9.0 mph 14.0 mph 69 % 0.00 in 9 W/m2
20:32 59.9 °F 49.7 °F 30.03 in WNW 8.0 mph 14.0 mph 69 % 0.00 in 7 W/m2
20:37 59.7 °F 49.9 °F 30.03 in WNW 9.0 mph 14.0 mph 70 % 0.00 in 5 W/m2
20:43 59.4 °F 49.6 °F 30.03 in WNW 9.0 mph 16.0 mph 70 % 0.00 in 5 W/m2
20:48 59.4 °F 50.0 °F 30.04 in WNW 9.0 mph 16.0 mph 71 % 0.00 in 0 W/m2
20:53 59.2 °F 49.8 °F 30.04 in WNW 7.0 mph 12.0 mph 71 % 0.00 in 0 W/m2
20:58 58.8 °F 49.8 °F 30.04 in WNW 6.0 mph 11.0 mph 72 % 0.00 in 0 W/m2
21:03 58.6 °F 49.6 °F 30.04 in WNW 7.0 mph 12.0 mph 72 % 0.00 in 0 W/m2
21:08 58.5 °F 49.8 °F 30.04 in WNW 7.0 mph 12.0 mph 73 % 0.00 in 0 W/m2
21:13 58.3 °F 49.7 °F 30.05 in WNW 7.0 mph 10.0 mph 73 % 0.00 in 0 W/m2
21:18 57.9 °F 49.7 °F 30.05 in WNW 6.0 mph 12.0 mph 74 % 0.00 in 0 W/m2
21:23 57.7 °F 49.5 °F 30.05 in WNW 7.0 mph 12.0 mph 74 % 0.00 in 0 W/m2
21:28 57.6 °F 49.7 °F 30.05 in WNW 7.0 mph 12.0 mph 75 % 0.00 in 0 W/m2
21:29 57.6 °F 49.7 °F 30.05 in WNW 7.0 mph 12.0 mph 75 % 0.00 in 0 W/m2
21:34 57.6 °F 49.7 °F 30.05 in WNW 8.0 mph 13.0 mph 75 % 0.00 in 0 W/m2
21:35 57.4 °F 49.5 °F 30.05 in WNW 8.0 mph 13.0 mph 75 % 0.00 in 0 W/m2
21:40 57.4 °F 49.5 °F 30.05 in WNW 7.0 mph 13.0 mph 75 % 0.00 in 0 W/m2
21:45 57.2 °F 49.7 °F 30.05 in WNW 7.0 mph 14.0 mph 76 % 0.00 in 0 W/m2
21:50 57.0 °F 49.5 °F 30.06 in WNW 8.0 mph 14.0 mph 76 % 0.00 in 0 W/m2
21:55 56.8 °F 49.7 °F 30.06 in WNW 8.0 mph 15.0 mph 77 % 0.00 in 0 W/m2
22:00 56.8 °F 49.7 °F 30.05 in WNW 8.0 mph 15.0 mph 77 % 0.00 in 0 W/m2
22:05 56.7 °F 49.9 °F 30.05 in WNW 8.0 mph 13.0 mph 78 % 0.00 in 0 W/m2
22:10 56.7 °F 49.9 °F 30.06 in WNW 7.0 mph 13.0 mph 78 % 0.00 in 0 W/m2
22:15 56.5 °F 49.7 °F 30.06 in WNW 6.0 mph 11.0 mph 78 % 0.00 in 0 W/m2
22:20 56.3 °F 49.9 °F 30.06 in WNW 6.0 mph 10.0 mph 79 % 0.00 in 0 W/m2
22:25 56.1 °F 49.7 °F 30.06 in WNW 6.0 mph 10.0 mph 79 % 0.00 in 0 W/m2
22:30 55.9 °F 49.5 °F 30.06 in WNW 5.0 mph 9.0 mph 79 % 0.00 in 0 W/m2
22:35 55.9 °F 49.9 °F 30.06 in WNW 5.0 mph 9.0 mph 80 % 0.00 in 0 W/m2
22:40 55.8 °F 49.7 °F 30.06 in WNW 6.0 mph 9.0 mph 80 % 0.00 in 0 W/m2
22:45 55.6 °F 49.5 °F 30.06 in WNW 5.0 mph 9.0 mph 80 % 0.00 in 0 W/m2
22:50 55.6 °F 49.8 °F 30.06 in WNW 5.0 mph 8.0 mph 81 % 0.00 in 0 W/m2
22:55 55.4 °F 49.7 °F 30.06 in WNW 5.0 mph 8.0 mph 81 % 0.00 in 0 W/m2
23:00 55.2 °F 49.5 °F 30.06 in WNW 5.0 mph 8.0 mph 81 % 0.00 in 0 W/m2
23:05 55.2 °F 49.5 °F 30.06 in WNW 5.0 mph 9.0 mph 81 % 0.00 in 0 W/m2
23:10 55.0 °F 49.6 °F 30.06 in WNW 5.0 mph 9.0 mph 82 % 0.00 in 0 W/m2
23:15 55.0 °F 49.6 °F 30.06 in WNW 7.0 mph 14.0 mph 82 % 0.00 in 0 W/m2
23:20 55.0 °F 50.0 °F 30.07 in WNW 7.0 mph 14.0 mph 83 % 0.00 in 0 W/m2
23:25 55.0 °F 50.0 °F 30.07 in WNW 7.0 mph 12.0 mph 83 % 0.00 in 0 W/m2
23:30 55.0 °F 50.0 °F 30.07 in WNW 7.0 mph 11.0 mph 83 % 0.00 in 0 W/m2
23:35 54.9 °F 49.8 °F 30.07 in WNW 7.0 mph 12.0 mph 83 % 0.00 in 0 W/m2
23:40 54.9 °F 49.8 °F 30.07 in WNW 7.0 mph 12.0 mph 83 % 0.00 in 0 W/m2
23:45 54.9 °F 49.8 °F 30.07 in WNW 7.0 mph 10.0 mph 83 % 0.00 in 0 W/m2
23:50 54.7 °F 49.9 °F 30.07 in WNW 6.0 mph 10.0 mph 84 % 0.00 in 0 W/m2
23:55 54.7 °F 49.9 °F 30.07 in West 4.0 mph 8.0 mph 84 % 0.00 in 0 W/m2
23:58 54.5 °F 49.8 °F 30.07 in West 3.0 mph 9.0 mph 84 % 0.00 in 0 W/m2
Delerius-Weather
Compliments of Weather Underground - 2.25 mb

Data updates at regular intervals.